Time;durP1;ratioP1;P1;durP2;ratioP2;P2;SDS_P1;SDS_P2;PMS_P1;PMS_P2;Temp;Humidity;BMP_temperature;BMP_pressure;BME280_temperature;BME280_humidity;BME280_pressure;Samples;Min_cycle;Max_cycle;Signal;HPM_P1;HPM_P2
2022/10/15 00:00:48;;;;;;;4.88;2.33;;;21.50;71.50;;;;;;4958047;28;92250;-82
2022/10/15 00:03:14;;;;;;;3.22;2.30;;;21.50;71.50;;;;;;4958079;28;95087;-82
2022/10/15 00:05:40;;;;;;;2.83;1.95;;;21.50;72.00;;;;;;4957451;28;93134;-82
2022/10/15 00:08:07;;;;;;;4.38;2.13;;;21.50;71.30;;;;;;4957569;28;92010;-82
2022/10/15 00:10:33;;;;;;;2.22;1.85;;;21.50;71.40;;;;;;4959476;28;91990;-82
2022/10/15 00:12:59;;;;;;;3.97;2.30;;;21.50;71.40;;;;;;4958052;28;95165;-83
2022/10/15 00:15:25;;;;;;;3.25;1.98;;;21.50;71.30;;;;;;4961025;28;94119;-82
2022/10/15 00:17:51;;;;;;;2.83;2.30;;;21.50;71.30;;;;;;4957739;28;93669;-82
2022/10/15 00:20:17;;;;;;;3.25;2.03;;;21.40;71.40;;;;;;4937875;28;93381;-82
2022/10/15 00:22:42;;;;;;;2.35;1.90;;;21.40;71.40;;;;;;4957066;28;92670;-82
2022/10/15 00:25:08;;;;;;;2.92;2.20;;;21.40;71.30;;;;;;4957321;28;93408;-82
2022/10/15 00:27:35;;;;;;;3.38;2.17;;;21.50;71.40;;;;;;4957929;28;92852;-82
2022/10/15 00:30:02;;;;;;;3.60;2.00;;;21.40;71.30;;;;;;4957813;28;91696;-82
2022/10/15 00:32:28;;;;;;;2.30;1.50;;;21.40;71.30;;;;;;4956095;28;93908;-82
2022/10/15 00:34:57;;;;;;;3.35;2.38;;;21.40;71.40;;;;;;4958026;28;92376;-82
2022/10/15 00:37:23;;;;;;;3.70;2.10;;;21.40;71.40;;;;;;4956926;28;93824;-82
2022/10/15 00:39:48;;;;;;;3.97;1.98;;;21.40;71.40;;;;;;4956474;28;92759;-82
2022/10/15 00:42:14;;;;;;;2.00;1.75;;;21.40;71.40;;;;;;4956460;28;93081;-82
2022/10/15 00:44:56;;;;;;;2.85;2.13;;;21.40;71.30;;;;;;4938368;28;92907;-82
2022/10/15 00:47:41;;;;;;;2.92;2.08;;;21.40;71.40;;;;;;4955841;28;92015;-82
2022/10/15 00:50:11;;;;;;;2.50;1.98;;;21.40;71.30;;;;;;4958169;28;92022;-82
2022/10/15 00:52:43;;;;;;;2.38;1.90;;;21.40;71.20;;;;;;4957507;28;93336;-82
2022/10/15 00:55:23;;;;;;;3.22;1.90;;;21.40;71.20;;;;;;4958309;28;92714;-83
2022/10/15 00:57:50;;;;;;;3.38;2.35;;;21.30;71.20;;;;;;4955975;28;92180;-83
2022/10/15 01:00:16;;;;;;;3.53;2.15;;;21.40;71.20;;;;;;4959515;28;93344;-82
2022/10/15 01:02:43;;;;;;;3.08;2.03;;;21.40;71.30;;;;;;4957634;28;94174;-82
2022/10/15 01:05:10;;;;;;;2.90;2.13;;;21.40;71.20;;;;;;4957437;28;94385;-82
2022/10/15 01:07:35;;;;;;;4.03;2.35;;;21.30;71.30;;;;;;4959049;28;92245;-82
2022/10/15 01:10:03;;;;;;;2.42;2.03;;;21.40;71.30;;;;;;4955816;28;92285;-82
2022/10/15 01:13:11;;;;;;;2.97;2.20;;;21.30;71.00;;;;;;4953515;28;94206;-82
2022/10/15 01:15:50;;;;;;;2.90;1.92;;;21.30;71.10;;;;;;4887117;28;92824;-82
2022/10/15 01:18:25;;;;;;;;;;;21.30;71.10;;;;;;4889245;28;93160;-82
2022/10/15 01:21:16;;;;;;;2.70;2.00;;;21.30;71.10;;;;;;4892589;28;93125;-82
2022/10/15 01:23:56;;;;;;;2.55;2.05;;;21.30;71.10;;;;;;4890874;28;93600;-83
2022/10/15 01:26:37;;;;;;;4.10;1.90;;;21.30;70.90;;;;;;4890825;28;93424;-82
2022/10/15 01:29:18;;;;;;;2.70;2.03;;;21.30;71.10;;;;;;4891049;28;93213;-82
2022/10/15 01:31:56;;;;;;;2.85;2.25;;;21.30;70.80;;;;;;4890638;28;93372;-82
2022/10/15 01:34:44;;;;;;;3.50;2.33;;;21.30;71.00;;;;;;4891555;28;93422;-82
2022/10/15 01:37:13;;;;;;;3.00;1.83;;;21.30;70.80;;;;;;4891684;28;93327;-82
2022/10/15 01:39:43;;;;;;;3.13;1.90;;;21.30;70.90;;;;;;4890990;28;92891;-82
2022/10/15 01:42:17;;;;;;;2.63;1.80;;;21.30;70.90;;;;;;4890943;28;92647;-82
2022/10/15 01:44:52;;;;;;;2.63;1.95;;;21.30;70.90;;;;;;4891339;28;93570;-82
2022/10/15 01:47:27;;;;;;;3.35;1.95;;;21.30;71.10;;;;;;4890633;28;93030;-82
2022/10/15 01:49:54;;;;;;;2.95;2.10;;;21.30;70.90;;;;;;4890311;28;92815;-83
2022/10/15 01:52:28;;;;;;;4.13;2.00;;;21.20;70.80;;;;;;4922916;28;92784;-82
2022/10/15 01:54:54;;;;;;;2.55;2.03;;;21.30;71.00;;;;;;4958537;28;94692;-82
2022/10/15 01:57:23;;;;;;;2.30;1.80;;;21.30;70.90;;;;;;4960003;28;94196;-82
2022/10/15 01:59:49;;;;;;;2.50;1.90;;;21.20;70.90;;;;;;4959673;28;92581;-82
2022/10/15 02:02:14;;;;;;;5.15;2.20;;;21.30;71.10;;;;;;4959944;28;92658;-82
2022/10/15 02:04:40;;;;;;;2.47;1.80;;;21.30;70.90;;;;;;4960914;28;92549;-82
2022/10/15 02:07:19;;;;;;;2.45;1.88;;;21.20;70.90;;;;;;4960532;28;92392;-82
2022/10/15 02:10:08;;;;;;;2.92;2.00;;;21.20;70.80;;;;;;4959907;28;92389;-82
2022/10/15 02:12:57;;;;;;;2.45;1.80;;;21.20;70.80;;;;;;4959520;28;91824;-82
2022/10/15 02:15:44;;;;;;;2.88;2.17;;;21.20;71.00;;;;;;4959116;28;92728;-82
2022/10/15 02:18:26;;;;;;;3.33;2.10;;;21.20;70.90;;;;;;4961759;28;92594;-82
2022/10/15 02:20:58;;;;;;;3.15;1.90;;;21.20;70.90;;;;;;4959303;28;93343;-82
2022/10/15 02:23:48;;;;;;;2.45;1.60;;;21.20;71.00;;;;;;4957961;28;92588;-82
2022/10/15 02:26:15;;;;;;;3.70;2.10;;;21.20;71.00;;;;;;4961583;28;93625;-82
2022/10/15 02:28:45;;;;;;;2.50;1.98;;;21.20;71.00;;;;;;4959471;28;100304;-82
2022/10/15 02:31:14;;;;;;;2.60;1.90;;;21.20;71.00;;;;;;4960900;28;92652;-82
2022/10/15 02:33:40;;;;;;;2.00;1.70;;;21.20;70.90;;;;;;4960482;28;92510;-82
2022/10/15 02:36:07;;;;;;;2.25;1.85;;;21.20;70.90;;;;;;4957603;28;94090;-82
2022/10/15 02:38:35;;;;;;;2.13;1.65;;;21.20;71.00;;;;;;4959737;28;92988;-82
2022/10/15 02:41:01;;;;;;;2.13;1.92;;;21.20;71.00;;;;;;4959556;28;92430;-82
2022/10/15 02:43:27;;;;;;;2.25;1.90;;;21.20;70.80;;;;;;4961568;28;92013;-82
2022/10/15 02:45:53;;;;;;;1.95;1.63;;;21.20;70.80;;;;;;4959912;28;93520;-82
2022/10/15 02:48:18;;;;;;;4.47;1.92;;;21.20;70.80;;;;;;4957257;28;94476;-82
2022/10/15 02:50:44;;;;;;;2.80;1.83;;;21.10;70.80;;;;;;4959219;28;92311;-82
2022/10/15 02:53:09;;;;;;;2.70;1.95;;;21.10;70.80;;;;;;4961396;28;92087;-82
2022/10/15 02:55:35;;;;;;;2.22;1.80;;;21.10;70.90;;;;;;4956591;28;93216;-82
2022/10/15 02:58:00;;;;;;;2.10;1.80;;;21.10;70.80;;;;;;4958437;28;92819;-82
2022/10/15 03:00:26;;;;;;;2.78;1.95;;;21.10;70.70;;;;;;4958376;28;92126;-82
2022/10/15 03:02:52;;;;;;;1.70;1.60;;;21.10;70.70;;;;;;4960054;28;91945;-82
2022/10/15 03:05:18;;;;;;;2.25;1.70;;;21.10;70.70;;;;;;4958187;28;95275;-82
2022/10/15 03:07:43;;;;;;;2.08;1.58;;;21.10;70.70;;;;;;4959368;28;92362;-82
2022/10/15 03:10:09;;;;;;;3.83;1.90;;;21.10;70.70;;;;;;4959577;28;93101;-82
2022/10/15 03:12:34;;;;;;;2.38;1.90;;;21.10;70.60;;;;;;4959341;28;92418;-82
2022/10/15 03:15:01;;;;;;;1.85;1.60;;;21.10;70.50;;;;;;4960894;28;92793;-82
2022/10/15 03:17:26;;;;;;;2.22;1.73;;;21.10;70.40;;;;;;4957657;28;93181;-82
2022/10/15 03:19:52;;;;;;;2.85;2.00;;;21.10;70.50;;;;;;4959594;28;92675;-81
2022/10/15 03:22:17;;;;;;;2.40;1.83;;;21.10;70.50;;;;;;4959380;28;92227;-82
2022/10/15 03:24:43;;;;;;;2.42;1.60;;;21.10;70.60;;;;;;4957973;28;93605;-82
2022/10/15 03:27:08;;;;;;;1.88;1.65;;;21.10;70.50;;;;;;4958800;28;93770;-82
2022/10/15 03:29:34;;;;;;;1.95;1.73;;;21.10;70.50;;;;;;4956652;28;92525;-82
2022/10/15 03:32:00;;;;;;;3.13;1.52;;;21.10;70.40;;;;;;4958048;28;92713;-82
2022/10/15 03:34:25;;;;;;;2.50;1.80;;;21.10;70.50;;;;;;4957476;28;94120;-82
2022/10/15 03:36:51;;;;;;;3.10;2.00;;;21.10;70.40;;;;;;4958287;28;93059;-82
2022/10/15 03:39:16;;;;;;;1.88;1.70;;;21.10;70.50;;;;;;4958572;28;92117;-83
2022/10/15 03:41:42;;;;;;;2.05;1.80;;;21.10;70.40;;;;;;4959019;28;92499;-82
2022/10/15 03:44:09;;;;;;;1.83;1.65;;;21.10;70.40;;;;;;4956736;28;93217;-82
2022/10/15 03:46:35;;;;;;;3.00;2.00;;;21.10;70.30;;;;;;4957111;28;93276;-82
2022/10/15 03:49:00;;;;;;;1.75;1.58;;;21.10;70.40;;;;;;4959166;28;92900;-82
2022/10/15 03:51:26;;;;;;;2.58;1.65;;;21.00;70.70;;;;;;4959410;28;91386;-82
2022/10/15 03:53:52;;;;;;;1.63;1.45;;;21.10;70.50;;;;;;4958600;28;93546;-82
2022/10/15 03:56:18;;;;;;;2.50;1.52;;;21.00;70.30;;;;;;4957064;28;93097;-81
2022/10/15 03:58:44;;;;;;;2.85;1.70;;;21.00;70.30;;;;;;4956024;28;93206;-82
2022/10/15 04:01:15;;;;;;;2.20;1.90;;;21.00;70.40;;;;;;4961916;28;92810;-82
2022/10/15 04:03:41;;;;;;;2.83;2.03;;;21.10;70.40;;;;;;4957145;28;95005;-82
2022/10/15 04:06:06;;;;;;;2.85;1.73;;;21.10;70.40;;;;;;4959241;28;93138;-82
2022/10/15 04:08:32;;;;;;;2.00;1.67;;;21.00;70.20;;;;;;4960509;28;92058;-82
2022/10/15 04:10:58;;;;;;;1.90;1.60;;;21.10;70.20;;;;;;4956691;28;92104;-82
2022/10/15 04:13:24;;;;;;;2.17;1.67;;;21.00;70.10;;;;;;4958863;28;94081;-82
2022/10/15 04:15:50;;;;;;;3.17;1.83;;;21.10;70.20;;;;;;4956089;28;92138;-83
2022/10/15 04:18:16;;;;;;;2.22;1.80;;;21.10;70.00;;;;;;4958474;28;92718;-82
2022/10/15 04:20:41;;;;;;;2.35;1.58;;;21.10;70.00;;;;;;4961798;28;92566;-82
2022/10/15 04:23:08;;;;;;;2.15;1.70;;;21.00;70.10;;;;;;4960238;28;93495;-82
2022/10/15 04:25:36;;;;;;;2.00;1.80;;;21.00;70.00;;;;;;4958556;28;94293;-82
2022/10/15 04:28:02;;;;;;;2.15;1.92;;;21.00;70.10;;;;;;4960049;28;92157;-82
2022/10/15 04:30:27;;;;;;;2.20;1.65;;;21.00;70.20;;;;;;4956675;28;91984;-83
2022/10/15 04:32:53;;;;;;;3.22;2.03;;;21.00;70.10;;;;;;4957028;28;93291;-82
2022/10/15 04:35:19;;;;;;;1.88;1.50;;;21.00;70.10;;;;;;4959348;28;92891;-83
2022/10/15 04:37:45;;;;;;;2.63;1.95;;;21.00;70.00;;;;;;4956921;28;92217;-82
2022/10/15 04:40:12;;;;;;;2.50;1.88;;;21.00;70.30;;;;;;4957399;28;91321;-82
2022/10/15 04:42:38;;;;;;;2.65;1.88;;;21.00;70.20;;;;;;4958841;28;94988;-82
2022/10/15 04:45:05;;;;;;;1.85;1.50;;;21.00;70.10;;;;;;4946324;28;94314;-82
2022/10/15 04:47:30;;;;;;;1.65;1.55;;;21.00;70.00;;;;;;4958191;28;93510;-82
2022/10/15 04:49:56;;;;;;;2.30;1.85;;;21.00;70.00;;;;;;4959056;28;92903;-82
2022/10/15 04:52:22;;;;;;;2.05;1.52;;;21.00;69.90;;;;;;4957179;28;92726;-82
2022/10/15 04:54:47;;;;;;;2.47;2.10;;;21.00;70.20;;;;;;4959741;28;93139;-82
2022/10/15 04:57:13;;;;;;;2.38;1.80;;;21.00;70.10;;;;;;4957616;28;92117;-82
2022/10/15 04:59:39;;;;;;;1.98;1.63;;;21.00;70.10;;;;;;4955012;28;92412;-82
2022/10/15 05:02:04;;;;;;;1.98;1.77;;;21.00;70.00;;;;;;4957307;28;92377;-82
2022/10/15 05:04:30;;;;;;;2.38;1.40;;;20.90;70.00;;;;;;4957278;28;93308;-81
2022/10/15 05:06:56;;;;;;;1.65;1.55;;;21.00;70.20;;;;;;4960930;28;92284;-82
2022/10/15 05:09:21;;;;;;;2.33;1.98;;;21.00;70.20;;;;;;4955216;28;92787;-81
2022/10/15 05:11:47;;;;;;;1.90;1.48;;;21.00;70.00;;;;;;4956377;28;93973;-82
2022/10/15 05:14:12;;;;;;;2.78;1.83;;;21.00;70.00;;;;;;4955014;28;92382;-82
2022/10/15 05:16:38;;;;;;;3.03;1.92;;;21.00;69.80;;;;;;4956417;28;92000;-82
2022/10/15 05:19:06;;;;;;;3.15;2.00;;;21.00;70.00;;;;;;4961924;28;92040;-82
2022/10/15 05:21:33;;;;;;;1.85;1.58;;;20.90;70.10;;;;;;4956965;28;94698;-82
2022/10/15 05:24:00;;;;;;;2.00;1.80;;;21.00;69.80;;;;;;4956677;28;92750;-82
2022/10/15 05:26:27;;;;;;;2.42;1.92;;;21.00;70.00;;;;;;4955735;28;92468;-82
2022/10/15 05:28:55;;;;;;;1.92;1.70;;;21.00;70.10;;;;;;4956542;28;92018;-82
2022/10/15 05:31:22;;;;;;;3.10;2.15;;;21.00;70.00;;;;;;4957415;28;93360;-82
2022/10/15 05:33:48;;;;;;;2.17;1.67;;;20.90;70.00;;;;;;4956127;28;93054;-83
2022/10/15 05:36:20;;;;;;;2.22;1.80;;;20.90;70.10;;;;;;4954424;28;94083;-82
2022/10/15 05:38:48;;;;;;;1.88;1.60;;;20.90;69.90;;;;;;4956291;28;92388;-82
2022/10/15 05:41:14;;;;;;;1.85;1.73;;;20.90;69.80;;;;;;4957010;28;93448;-81
2022/10/15 05:43:40;;;;;;;1.80;1.70;;;20.90;70.00;;;;;;4954826;28;93306;-82
2022/10/15 05:46:06;;;;;;;2.00;1.67;;;20.90;70.10;;;;;;4956283;28;92179;-82
2022/10/15 05:48:32;;;;;;;2.22;1.67;;;20.90;70.00;;;;;;4957282;28;92130;-82
2022/10/15 05:51:05;;;;;;;1.80;1.50;;;20.90;69.90;;;;;;4954837;28;93264;-82
2022/10/15 05:53:31;;;;;;;1.80;1.70;;;20.90;69.90;;;;;;4957535;28;95167;-83
2022/10/15 05:56:00;;;;;;;1.88;1.50;;;20.90;69.80;;;;;;4956265;28;92616;-82
2022/10/15 05:58:26;;;;;;;3.15;1.90;;;20.90;69.70;;;;;;4952746;28;93040;-82
2022/10/15 06:00:56;;;;;;;1.80;1.63;;;20.90;69.80;;;;;;4953973;28;95158;-82
2022/10/15 06:03:23;;;;;;;2.22;1.50;;;20.90;70.00;;;;;;4954965;28;93209;-82
2022/10/15 06:05:48;;;;;;;1.67;1.58;;;20.90;69.80;;;;;;4957029;28;92331;-82
2022/10/15 06:08:14;;;;;;;2.00;1.55;;;20.90;69.80;;;;;;4961623;28;92081;-82
2022/10/15 06:10:40;;;;;;;1.85;1.55;;;20.90;69.90;;;;;;4958119;28;92694;-82
2022/10/15 06:13:06;;;;;;;2.38;1.50;;;20.90;69.90;;;;;;4961829;28;92559;-82
2022/10/15 06:15:32;;;;;;;1.73;1.63;;;20.90;69.90;;;;;;4958334;28;92615;-82
2022/10/15 06:17:58;;;;;;;2.80;1.88;;;20.90;69.90;;;;;;4960395;28;91420;-82
2022/10/15 06:20:24;;;;;;;1.67;1.58;;;20.90;69.80;;;;;;4962192;28;93151;-83
2022/10/15 06:22:49;;;;;;;2.30;1.85;;;20.90;69.60;;;;;;4959059;28;94535;-82
2022/10/15 06:25:15;;;;;;;2.53;1.83;;;20.90;69.70;;;;;;4959945;28;92993;-82
2022/10/15 06:27:41;;;;;;;2.22;1.90;;;20.90;69.60;;;;;;4958374;28;92997;-82
2022/10/15 06:30:07;;;;;;;2.20;1.90;;;20.90;69.90;;;;;;4960999;28;92715;-82
2022/10/15 06:32:33;;;;;;;3.17;1.60;;;20.90;69.80;;;;;;4959183;28;94721;-82
2022/10/15 06:34:59;;;;;;;2.42;2.13;;;21.00;69.50;;;;;;4962461;28;91990;-83
2022/10/15 06:37:27;;;;;;;3.15;2.50;;;21.00;68.50;;;;;;4961061;28;92536;-83
2022/10/15 06:39:52;;;;;;;2.35;1.90;;;21.10;67.80;;;;;;4942883;28;93717;-83
2022/10/15 06:42:18;;;;;;;2.90;2.60;;;21.10;67.20;;;;;;4960766;28;94645;-82
2022/10/15 06:44:43;;;;;;;3.13;2.72;;;21.10;67.10;;;;;;4960316;28;92681;-83
2022/10/15 06:47:09;;;;;;;5.47;3.00;;;21.10;67.00;;;;;;4960878;28;92569;-83
2022/10/15 06:49:34;;;;;;;6.18;2.53;;;21.20;67.10;;;;;;4958617;28;95343;-83
2022/10/15 06:52:00;;;;;;;4.53;4.00;;;21.20;67.70;;;;;;4967255;28;93237;-82
2022/10/15 06:54:25;;;;;;;5.07;3.63;;;21.20;64.60;;;;;;4963443;28;92139;-84
2022/10/15 06:56:51;;;;;;;3.53;3.22;;;21.20;64.20;;;;;;4962199;28;92255;-83
2022/10/15 06:59:16;;;;;;;6.43;3.30;;;21.20;64.20;;;;;;4959758;28;94412;-82
2022/10/15 07:01:42;;;;;;;5.43;2.92;;;21.10;66.30;;;;;;4959289;28;92089;-83
2022/10/15 07:04:08;;;;;;;5.15;3.13;;;21.20;67.50;;;;;;4958577;28;92696;-80
2022/10/15 07:06:36;;;;;;;3.88;3.00;;;21.20;66.60;;;;;;4960828;28;92263;-80
2022/10/15 07:09:02;;;;;;;5.20;2.70;;;21.10;66.80;;;;;;4959973;28;94156;-81
2022/10/15 07:11:27;;;;;;;4.90;3.13;;;21.10;67.20;;;;;;4960515;28;92736;-81
2022/10/15 07:13:53;;;;;;;3.80;2.80;;;21.10;67.10;;;;;;4956380;28;93206;-80
2022/10/15 07:16:19;;;;;;;3.80;2.97;;;21.10;68.20;;;;;;4956521;28;92730;-81
2022/10/15 07:18:46;;;;;;;3.65;3.03;;;21.10;67.20;;;;;;4957873;28;92718;-81
2022/10/15 07:21:12;;;;;;;5.97;2.42;;;21.10;67.10;;;;;;4960591;28;92901;-81
2022/10/15 07:23:37;;;;;;;4.88;2.47;;;21.10;67.30;;;;;;4955790;28;92332;-81
2022/10/15 07:26:03;;;;;;;4.53;2.70;;;21.10;67.40;;;;;;4958981;28;92113;-81
2022/10/15 07:28:29;;;;;;;3.47;2.45;;;21.10;67.30;;;;;;4956336;28;95098;-81
2022/10/15 07:31:00;;;;;;;3.00;2.47;;;21.10;67.30;;;;;;4958916;28;93150;-81
2022/10/15 07:33:25;;;;;;;5.07;2.92;;;21.10;67.20;;;;;;4955157;28;92737;-81
2022/10/15 07:35:51;;;;;;;4.07;2.63;;;21.10;67.30;;;;;;4956453;28;92479;-82
2022/10/15 07:38:17;;;;;;;3.38;2.30;;;21.10;67.40;;;;;;4959768;28;95367;-82
2022/10/15 07:40:42;;;;;;;5.43;2.53;;;21.20;67.00;;;;;;4957132;28;93158;-82
2022/10/15 07:43:08;;;;;;;3.05;2.40;;;21.10;66.90;;;;;;4957517;28;92584;-82
2022/10/15 07:45:34;;;;;;;3.92;2.50;;;21.10;67.10;;;;;;4957516;28;92565;-83
2022/10/15 07:48:00;;;;;;;6.20;2.83;;;21.10;67.20;;;;;;4956471;28;92468;-80
2022/10/15 07:50:26;;;;;;;5.43;2.47;;;21.20;67.60;;;;;;4958017;28;101282;-83
2022/10/15 07:52:52;;;;;;;6.28;2.78;;;21.20;67.80;;;;;;4958661;28;92733;-82
2022/10/15 07:55:17;;;;;;;6.35;3.25;;;21.20;67.80;;;;;;4946415;28;91890;-82
2022/10/15 07:57:43;;;;;;;10.45;3.15;;;21.20;68.10;;;;;;4958316;28;92626;-82
2022/10/15 08:00:09;;;;;;;12.60;3.30;;;21.10;68.40;;;;;;4959696;28;93094;-82
2022/10/15 08:02:35;;;;;;;11.68;4.15;;;21.20;68.30;;;;;;4956679;28;93491;-84
2022/10/15 08:05:03;;;;;;;20.20;3.55;;;21.20;68.50;;;;;;4957822;28;92500;-82
2022/10/15 08:07:28;;;;;;;19.70;4.82;;;21.20;68.40;;;;;;4959280;28;93206;-82
2022/10/15 08:09:54;;;;;;;12.77;3.58;;;21.20;68.10;;;;;;4960468;28;92658;-82
2022/10/15 08:12:19;;;;;;;13.98;4.38;;;21.30;68.20;;;;;;4955982;28;92834;-80
2022/10/15 08:14:46;;;;;;;23.40;5.25;;;21.50;67.90;;;;;;4958744;28;92550;-83
2022/10/15 08:17:16;;;;;;;15.40;4.22;;;21.60;67.40;;;;;;4958087;28;93892;-84
2022/10/15 08:19:41;;;;;;;16.13;5.28;;;21.50;67.60;;;;;;4959963;28;93362;-83
2022/10/15 08:22:07;;;;;;;18.88;5.68;;;21.60;67.90;;;;;;4959691;28;92676;-82
2022/10/15 08:24:32;;;;;;;22.83;6.07;;;21.60;67.80;;;;;;4959229;28;92264;-83
2022/10/15 08:26:58;;;;;;;27.77;5.65;;;21.70;67.80;;;;;;4959992;28;96842;-81
2022/10/15 08:29:24;;;;;;;19.52;5.95;;;21.80;67.80;;;;;;4957320;28;93352;-82
2022/10/15 08:31:50;;;;;;;25.15;7.05;;;21.90;67.80;;;;;;4960937;28;92915;-82
2022/10/15 08:34:16;;;;;;;23.48;8.63;;;22.00;67.50;;;;;;4957835;28;92425;-82
2022/10/15 08:36:41;;;;;;;45.75;22.45;;;22.10;67.30;;;;;;4956357;28;97261;-83
2022/10/15 08:39:08;;;;;;;27.92;13.48;;;22.10;67.20;;;;;;4925867;28;93064;-82
2022/10/15 08:41:47;;;;;;;64.75;30.42;;;22.00;66.70;;;;;;4944526;28;92714;-82
2022/10/15 08:44:37;;;;;;;70.53;39.65;;;22.00;67.20;;;;;;4936248;28;91470;-83
2022/10/15 08:47:13;;;;;;;49.33;26.38;;;22.00;67.60;;;;;;4934730;28;92670;-82
2022/10/15 08:49:52;;;;;;;75.93;37.58;;;21.90;67.80;;;;;;4927800;28;93530;-83
2022/10/15 08:52:26;;;;;;;98.72;52.00;;;21.80;68.10;;;;;;4937712;28;93353;-83
2022/10/15 08:54:54;;;;;;;105.32;57.45;;;21.80;68.20;;;;;;4936495;28;92963;-82
2022/10/15 08:57:40;;;;;;;108.07;58.05;;;21.80;68.40;;;;;;4934127;28;92761;-82
2022/10/15 09:00:12;;;;;;;140.90;76.50;;;21.80;68.80;;;;;;4937416;28;100673;-83
2022/10/15 09:03:02;;;;;;;141.65;80.05;;;21.80;68.60;;;;;;4936187;28;92289;-83
2022/10/15 09:05:56;;;;;;;143.95;84.88;;;21.80;68.40;;;;;;4938213;28;92601;-83
2022/10/15 09:08:37;;;;;;;166.48;94.40;;;21.90;68.60;;;;;;4937955;28;94049;-82
2022/10/15 09:11:28;;;;;;;167.20;94.47;;;21.80;68.80;;;;;;4940435;28;93568;-84
2022/10/15 09:13:54;;;;;;;208.18;114.28;;;21.80;68.80;;;;;;4936930;28;92599;-84
2022/10/15 09:16:40;;;;;;;206.73;115.38;;;21.80;68.80;;;;;;4939759;28;92564;-83
2022/10/15 09:19:14;;;;;;;315.17;194.95;;;21.80;68.90;;;;;;4935753;28;94491;-83
2022/10/15 09:21:41;;;;;;;260.45;144.52;;;21.90;68.50;;;;;;4936568;28;95766;-83
2022/10/15 09:24:10;;;;;;;270.33;143.05;;;21.90;68.70;;;;;;4937526;28;92502;-83
2022/10/15 09:26:57;;;;;;;283.48;148.77;;;22.00;68.60;;;;;;4936914;28;92503;-83
2022/10/15 09:29:48;;;;;;;265.65;148.38;;;22.10;68.30;;;;;;4934758;28;93363;-83
2022/10/15 09:32:26;;;;;;;274.08;152.90;;;22.10;67.90;;;;;;4935128;28;93156;-83
2022/10/15 09:34:59;;;;;;;287.65;163.35;;;22.20;67.60;;;;;;4939484;28;92244;-83
2022/10/15 09:37:27;;;;;;;304.85;177.23;;;22.30;67.30;;;;;;4938680;28;91644;-83
2022/10/15 09:40:27;;;;;;;289.98;164.10;;;22.40;67.30;;;;;;4940802;28;92599;-84
2022/10/15 09:42:57;;;;;;;287.45;170.20;;;22.40;67.30;;;;;;4889822;28;97702;-84
2022/10/15 09:45:23;;;;;;;340.25;202.63;;;22.50;67.30;;;;;;4901122;28;93555;-83
2022/10/15 09:47:49;;;;;;;279.58;158.07;;;22.50;67.10;;;;;;4898302;28;93115;-84
2022/10/15 09:50:15;;;;;;;252.48;140.85;;;22.50;67.10;;;;;;4881809;28;95272;-83
2022/10/15 09:52:46;;;;;;;271.95;154.25;;;22.50;67.70;;;;;;4901307;28;94150;-84
2022/10/15 09:55:36;;;;;;;276.80;157.13;;;22.50;67.00;;;;;;4900776;28;92511;-84
2022/10/15 09:58:12;;;;;;;281.75;156.95;;;22.50;66.90;;;;;;4899247;28;92345;-84
2022/10/15 10:01:03;;;;;;;261.85;154.85;;;22.50;67.40;;;;;;4882042;28;92816;-84
2022/10/15 10:03:31;;;;;;;274.33;154.10;;;22.50;67.70;;;;;;4896635;28;93592;-84
2022/10/15 10:05:59;;;;;;;263.10;150.80;;;22.50;68.10;;;;;;4897724;28;92245;-83
2022/10/15 10:08:28;;;;;;;269.88;152.88;;;22.50;69.00;;;;;;4896935;28;93451;-84
2022/10/15 10:11:06;;;;;;;274.20;151.77;;;22.50;69.00;;;;;;4896690;28;94223;-83
2022/10/15 10:13:50;;;;;;;263.27;149.37;;;22.60;68.90;;;;;;4899218;28;93736;-82
2022/10/15 10:16:18;;;;;;;262.98;146.98;;;22.60;68.60;;;;;;4891786;28;92589;-83
2022/10/15 10:19:11;;;;;;;226.18;127.50;;;22.60;69.00;;;;;;4883624;28;92518;-82
2022/10/15 10:21:38;;;;;;;211.75;122.90;;;22.50;69.10;;;;;;4919515;28;93668;-82
2022/10/15 10:24:22;;;;;;;220.23;122.80;;;22.50;69.10;;;;;;4926047;28;95037;-83
2022/10/15 10:26:48;;;;;;;227.43;133.98;;;22.60;69.00;;;;;;4922281;28;92494;-83
2022/10/15 10:29:21;;;;;;;226.18;131.05;;;22.60;69.00;;;;;;4920542;28;91592;-82
2022/10/15 10:31:50;;;;;;;221.68;129.68;;;22.60;69.00;;;;;;4918953;28;95559;-83
2022/10/15 10:34:25;;;;;;;230.40;133.07;;;22.60;69.00;;;;;;4917905;28;95145;-84
2022/10/15 10:36:52;;;;;;;215.70;124.28;;;22.60;68.90;;;;;;4920773;28;93575;-83
2022/10/15 10:39:30;;;;;;;221.35;129.20;;;22.60;69.50;;;;;;4921209;28;92695;-83
2022/10/15 10:42:02;;;;;;;202.05;119.60;;;22.60;69.40;;;;;;4944669;28;92704;-82
2022/10/15 10:44:35;;;;;;;217.15;122.47;;;22.60;69.50;;;;;;4958420;28;93848;-82
2022/10/15 10:47:01;;;;;;;209.30;117.28;;;22.60;69.60;;;;;;4958811;28;92324;-83
2022/10/15 10:49:31;;;;;;;194.75;117.10;;;22.60;69.60;;;;;;4957623;28;92327;-82
2022/10/15 10:51:57;;;;;;;206.15;116.93;;;22.60;69.50;;;;;;4964832;28;94552;-82
2022/10/15 10:54:24;;;;;;;201.07;113.90;;;22.60;69.20;;;;;;4954982;28;93287;-82
2022/10/15 10:56:51;;;;;;;192.13;110.93;;;22.60;69.40;;;;;;4953936;28;92555;-82
2022/10/15 10:59:29;;;;;;;190.82;111.72;;;22.60;69.00;;;;;;4957175;28;92958;-82
2022/10/15 11:01:58;;;;;;;185.88;113.55;;;22.60;69.10;;;;;;4955764;28;94580;-82
2022/10/15 11:04:30;;;;;;;193.07;112.25;;;22.60;69.40;;;;;;4956407;28;94120;-82
2022/10/15 11:07:19;;;;;;;128.02;70.45;;;22.70;69.40;;;;;;4955319;28;92147;-82
2022/10/15 11:10:12;;;;;;;144.82;83.75;;;22.70;65.00;;;;;;4956449;28;92341;-82
2022/10/15 11:13:03;;;;;;;165.52;92.50;;;22.70;67.10;;;;;;4956206;28;92476;-82
2022/10/15 11:15:31;;;;;;;156.65;91.65;;;22.70;67.80;;;;;;4955606;28;93540;-82
2022/10/15 11:18:25;;;;;;;158.35;92.40;;;22.70;68.10;;;;;;4957091;28;92765;-82
2022/10/15 11:21:47;;;;;;;161.43;92.95;;;22.70;68.10;;;;;;4957029;28;91661;-82
2022/10/15 11:24:34;;;;;;;156.68;92.50;;;22.70;68.10;;;;;;4908003;28;93116;-80
2022/10/15 11:27:21;;;;;;;149.95;91.25;;;22.70;68.40;;;;;;4907194;28;93683;-81
2022/10/15 11:29:58;;;;;;;154.48;91.28;;;22.70;68.30;;;;;;4906453;28;93344;-81
2022/10/15 11:32:26;;;;;;;153.32;92.15;;;22.60;68.30;;;;;;4908504;28;92768;-81
2022/10/15 11:35:07;;;;;;;159.68;93.05;;;22.70;68.60;;;;;;4906585;28;93129;-82
2022/10/15 11:37:40;;;;;;;143.43;84.93;;;22.70;68.70;;;;;;4891043;28;95536;-82
2022/10/15 11:40:33;;;;;;;136.48;83.47;;;22.60;68.40;;;;;;4907711;28;92559;-81
2022/10/15 11:43:04;;;;;;;142.20;86.00;;;22.70;68.30;;;;;;4906794;28;92571;-82
2022/10/15 11:45:54;;;;;;;139.38;84.15;;;22.70;68.80;;;;;;4891472;28;96709;-82
2022/10/15 11:48:52;;;;;;;131.18;74.35;;;22.80;68.20;;;;;;4906900;28;92597;-83
2022/10/15 11:51:42;;;;;;;126.65;75.53;;;22.80;67.10;;;;;;4907738;28;92304;-82
2022/10/15 11:54:27;;;;;;;122.68;71.78;;;22.80;67.50;;;;;;4913130;28;92359;-82
2022/10/15 11:56:55;;;;;;;119.40;70.28;;;22.80;67.40;;;;;;4954067;28;93947;-82
2022/10/15 11:59:54;;;;;;;124.27;72.10;;;22.80;67.20;;;;;;4957267;28;94066;-83
2022/10/15 12:02:36;;;;;;;120.32;71.10;;;22.80;67.70;;;;;;4957472;28;92366;-83
2022/10/15 12:05:14;;;;;;;113.93;70.10;;;22.80;67.70;;;;;;4956791;28;92378;-82
2022/10/15 12:07:43;;;;;;;114.05;67.53;;;22.80;67.80;;;;;;4955306;28;93591;-83
2022/10/15 12:10:11;;;;;;;116.40;68.93;;;22.70;67.90;;;;;;4957583;28;92903;-82
2022/10/15 12:12:58;;;;;;;112.32;67.93;;;22.70;68.00;;;;;;4957525;28;92561;-82
2022/10/15 12:15:48;;;;;;;105.55;64.93;;;22.70;68.20;;;;;;4957617;28;91667;-81
2022/10/15 12:18:26;;;;;;;114.78;69.43;;;22.70;68.40;;;;;;4956469;28;93685;-81
2022/10/15 12:20:57;;;;;;;111.30;66.40;;;22.60;68.50;;;;;;4962912;28;96568;-82
2022/10/15 12:23:24;;;;;;;121.70;69.72;;;22.60;68.50;;;;;;4956985;28;93487;-82
2022/10/15 12:25:50;;;;;;;113.68;66.80;;;22.70;68.70;;;;;;4955919;28;93054;-81
2022/10/15 12:28:25;;;;;;;105.25;64.03;;;22.70;69.00;;;;;;4956403;28;92544;-81
2022/10/15 12:31:03;;;;;;;92.55;57.00;;;22.60;68.80;;;;;;4953572;28;97556;-82
2022/10/15 12:33:33;;;;;;;106.55;60.13;;;22.70;68.40;;;;;;4955901;28;92476;-81
2022/10/15 12:36:20;;;;;;;99.15;61.83;;;22.80;68.90;;;;;;4955031;28;92237;-81
2022/10/15 12:39:18;;;;;;;101.68;60.47;;;22.80;68.80;;;;;;4953691;28;95718;-81
2022/10/15 12:41:46;;;;;;;97.35;60.67;;;22.70;68.90;;;;;;4956926;28;93132;-80
2022/10/15 12:44:15;;;;;;;101.77;61.50;;;22.70;68.80;;;;;;4953530;28;92508;-81
2022/10/15 12:46:41;;;;;;;85.87;51.03;;;22.70;68.90;;;;;;4956084;28;92627;-81
2022/10/15 12:49:25;;;;;;;91.80;55.70;;;22.70;68.70;;;;;;4955352;28;94288;-82
2022/10/15 12:51:51;;;;;;;98.65;54.30;;;22.80;68.60;;;;;;4957433;28;98313;-81
2022/10/15 12:54:38;;;;;;;93.22;55.15;;;22.90;68.60;;;;;;4957501;28;92591;-82